createdAt,value
2022-08-18T00:01:19.717Z,92.60
2022-08-18T00:03:54.041Z,92.50
2022-08-18T00:05:49.103Z,92.30
2022-08-18T00:07:53.427Z,92.40
2022-08-18T00:10:00.020Z,92.30
2022-08-18T00:12:08.439Z,92.20
2022-08-18T00:14:21.356Z,92.20
2022-08-18T00:16:26.182Z,92.20
2022-08-18T00:18:30.493Z,92.60
2022-08-18T00:20:35.467Z,92.40
2022-08-18T00:22:40.327Z,92.00
2022-08-18T00:24:49.408Z,92.00
2022-08-18T00:26:55.745Z,92.10
2022-08-18T00:29:00.392Z,92.10
2022-08-18T00:31:06.964Z,91.60
2022-08-18T00:33:11.237Z,91.70
2022-08-18T00:35:18.498Z,91.60
2022-08-18T00:37:24.017Z,91.60
2022-08-18T00:39:35.074Z,92.10
2022-08-18T00:41:44.384Z,92.30
2022-08-18T00:43:52.490Z,92.60
2022-08-18T00:45:56.882Z,92.90
2022-08-18T00:48:02.387Z,92.70
2022-08-18T00:50:07.839Z,92.90
2022-08-18T00:52:20.234Z,93.20
2022-08-18T00:54:28.650Z,92.90
2022-08-18T00:56:37.812Z,93.10
2022-08-18T00:58:47.037Z,93.30
2022-08-18T01:00:53.751Z,93.40
2022-08-18T01:03:01.683Z,93.80
2022-08-18T01:05:12.154Z,94.00
2022-08-18T01:07:21.371Z,94.00
2022-08-18T01:09:25.822Z,94.30
2022-08-18T01:11:30.222Z,94.30
2022-08-18T01:13:38.381Z,94.10
2022-08-18T01:15:42.915Z,94.10
2022-08-18T01:18:06.577Z,94.10
2022-08-18T01:20:46.502Z,94.10
2022-08-18T01:22:59.731Z,94.00
2022-08-18T01:25:26.260Z,94.30
2022-08-18T01:27:32.462Z,94.40
2022-08-18T01:29:41.580Z,94.50
2022-08-18T01:31:55.586Z,94.60
2022-08-18T01:34:01.201Z,94.80
2022-08-18T01:36:12.833Z,94.70
2022-08-18T01:38:22.848Z,94.60
2022-08-18T01:41:22.242Z,94.60
2022-08-18T01:42:52.016Z,94.80
2022-08-18T01:44:57.055Z,95.10
2022-08-18T01:47:01.499Z,95.10
2022-08-18T01:49:07.701Z,95.30
2022-08-18T01:51:13.387Z,95.20
2022-08-18T01:53:19.328Z,95.30
2022-08-18T01:55:23.660Z,95.30
2022-08-18T01:57:28.337Z,95.50
2022-08-18T01:59:32.659Z,95.50
2022-08-18T02:01:43.365Z,95.40
2022-08-18T02:04:10.903Z,95.30
2022-08-18T02:06:32.222Z,95.50
2022-08-18T02:08:39.006Z,95.50
2022-08-18T02:10:47.799Z,95.60
2022-08-18T02:12:52.244Z,95.70
2022-08-18T02:14:56.831Z,96.00
2022-08-18T02:17:02.971Z,96.20
2022-08-18T02:19:07.256Z,96.20
2022-08-18T02:21:14.112Z,96.30
2022-08-18T02:23:23.506Z,96.30
2022-08-18T02:25:29.404Z,96.70
2022-08-18T02:27:34.034Z,96.70
2022-08-18T02:29:39.335Z,96.50
2022-08-18T02:31:43.857Z,96.70
2022-08-18T02:33:51.739Z,96.50
2022-08-18T02:35:58.876Z,96.40
2022-08-18T02:38:05.547Z,96.70
2022-08-18T02:40:15.502Z,96.80
2022-08-18T02:42:21.810Z,96.70
2022-08-18T02:44:26.277Z,96.80
2022-08-18T02:46:31.427Z,96.80
2022-08-18T02:48:36.366Z,96.70
2022-08-18T02:50:46.395Z,96.70
2022-08-18T02:52:51.167Z,96.70
2022-08-18T02:54:55.544Z,96.60
2022-08-18T02:56:59.985Z,96.70
2022-08-18T02:59:08.619Z,96.60
2022-08-18T03:01:13.169Z,96.50
2022-08-18T03:03:18.431Z,96.90
2022-08-18T03:05:22.938Z,96.60
2022-08-18T03:07:27.417Z,96.70
2022-08-18T03:09:33.515Z,96.80
2022-08-18T03:11:38.650Z,96.30
2022-08-18T03:13:43.126Z,96.50
2022-08-18T03:15:53.377Z,96.40
2022-08-18T03:18:02.237Z,96.40
2022-08-18T03:20:07.373Z,96.70
2022-08-18T03:22:28.411Z,97.20
2022-08-18T03:24:34.467Z,97.40
2022-08-18T03:26:43.173Z,97.20
2022-08-18T03:28:49.854Z,97.20
2022-08-18T03:30:56.006Z,97.10
2022-08-18T03:33:00.312Z,97.20
2022-08-18T03:35:05.071Z,97.30
2022-08-18T03:37:09.522Z,97.40
2022-08-18T03:39:15.109Z,97.30
2022-08-18T03:41:57.141Z,96.80
2022-08-18T03:43:49.954Z,96.90
2022-08-18T03:46:01.541Z,96.70
2022-08-18T03:48:05.985Z,96.50
2022-08-18T03:50:14.086Z,96.50
2022-08-18T03:52:21.750Z,96.70
2022-08-18T03:54:26.196Z,96.70
2022-08-18T03:56:33.721Z,96.60
2022-08-18T03:58:38.426Z,96.70
2022-08-18T04:00:43.070Z,97.00
2022-08-18T04:02:49.345Z,97.10
2022-08-18T04:04:54.020Z,97.20
2022-08-18T04:07:01.142Z,96.80
2022-08-18T04:09:07.414Z,96.70
2022-08-18T04:11:13.175Z,96.10
2022-08-18T04:13:17.693Z,96.20
2022-08-18T04:15:23.562Z,96.20
2022-08-18T04:17:28.336Z,95.60
2022-08-18T04:19:35.114Z,95.10
2022-08-18T04:21:42.375Z,94.90
2022-08-18T04:23:47.290Z,94.30
2022-08-18T04:25:58.170Z,93.60
2022-08-18T04:28:03.777Z,93.20
2022-08-18T04:30:09.804Z,93.10
2022-08-18T04:32:14.274Z,92.80
2022-08-18T04:34:20.700Z,92.40
2022-08-18T04:36:27.709Z,92.30
2022-08-18T04:38:32.077Z,92.10
2022-08-18T04:40:36.379Z,92.20
2022-08-18T04:42:43.499Z,91.90
2022-08-18T04:44:48.008Z,91.70
2022-08-18T04:46:54.658Z,91.70
2022-08-18T04:49:00.310Z,91.90
2022-08-18T04:51:09.171Z,92.30
2022-08-18T04:53:32.839Z,91.70
2022-08-18T04:55:37.238Z,91.90
2022-08-18T04:57:43.032Z,91.60
2022-08-18T04:59:50.360Z,91.10
2022-08-18T05:01:54.927Z,90.80
2022-08-18T05:04:00.793Z,91.00
2022-08-18T05:06:07.444Z,90.50
2022-08-18T05:08:11.934Z,89.60
2022-08-18T05:10:18.953Z,88.30
2022-08-18T05:12:26.005Z,89.00
2022-08-18T05:14:31.610Z,89.80
2022-08-18T05:16:48.164Z,89.70
2022-08-18T05:18:54.829Z,89.70
2022-08-18T05:21:01.100Z,89.40
2022-08-18T05:23:06.301Z,87.90
2022-08-18T05:25:13.594Z,86.70
2022-08-18T05:27:19.899Z,85.10
2022-08-18T05:29:25.213Z,82.90
2022-08-18T05:31:33.166Z,81.80
2022-08-18T05:33:39.842Z,82.20
2022-08-18T05:35:48.191Z,81.90
2022-08-18T05:38:28.174Z,82.00
2022-08-18T05:40:33.170Z,81.60
2022-08-18T05:42:41.333Z,80.50
2022-08-18T05:44:48.518Z,80.60
2022-08-18T05:46:55.031Z,80.30
2022-08-18T05:48:59.706Z,81.30
2022-08-18T05:51:14.983Z,82.10
2022-08-18T05:53:20.663Z,81.40
2022-08-18T05:55:48.500Z,82.20
2022-08-18T05:57:58.145Z,80.70
2022-08-18T06:00:03.332Z,79.90
2022-08-18T06:02:25.650Z,80.10
2022-08-18T06:04:40.960Z,81.70
2022-08-18T06:06:48.777Z,81.90
2022-08-18T06:08:59.902Z,82.90
2022-08-18T06:11:04.423Z,83.60
2022-08-18T06:13:13.609Z,83.30
2022-08-18T06:15:24.407Z,84.10
2022-08-18T06:17:55.075Z,82.90
2022-08-18T06:20:05.161Z,82.50
2022-08-18T06:22:21.608Z,82.60
2022-08-18T06:24:32.424Z,82.70
2022-08-18T06:26:43.494Z,82.10
2022-08-18T06:29:01.052Z,81.60
2022-08-18T06:31:14.864Z,80.90
2022-08-18T06:33:42.346Z,80.40
2022-08-18T06:35:53.340Z,80.90
2022-08-18T06:38:26.035Z,81.40
2022-08-18T06:40:30.864Z,80.20
2022-08-18T06:42:39.946Z,80.30
2022-08-18T06:44:50.722Z,79.30
2022-08-18T06:46:58.030Z,78.60
2022-08-18T06:49:06.577Z,78.20
2022-08-18T06:51:13.732Z,77.80
2022-08-18T06:53:26.875Z,77.70
2022-08-18T06:55:35.846Z,77.40
2022-08-18T06:57:58.889Z,75.30
2022-08-18T07:00:11.442Z,73.90
2022-08-18T07:02:36.905Z,73.60
2022-08-18T07:12:06.327Z,74.30
2022-08-18T07:17:00.329Z,74.30
2022-08-18T07:19:19.638Z,74.40
2022-08-18T07:21:30.018Z,74.90
2022-08-18T07:23:39.382Z,74.90
2022-08-18T07:25:48.959Z,74.60
2022-08-18T07:27:56.646Z,74.10
2022-08-18T07:56:27.230Z,70.10
2022-08-18T07:58:42.013Z,70.80
2022-08-18T08:00:59.345Z,70.60
2022-08-18T08:18:22.299Z,68.50
2022-08-18T08:21:03.237Z,70.80
2022-08-18T08:23:45.302Z,70.40
2022-08-18T08:37:37.557Z,67.30
2022-08-18T08:55:33.697Z,71.40
2022-08-18T08:58:03.033Z,71.50
2022-08-18T09:00:16.588Z,71.20
2022-08-18T09:02:56.031Z,69.90
2022-08-18T09:05:10.112Z,70.60
2022-08-18T09:07:38.263Z,70.10
2022-08-18T09:10:13.243Z,70.40
2022-08-18T09:12:38.069Z,70.40
2022-08-18T09:15:18.550Z,70.50
2022-08-18T09:17:43.479Z,70.20
2022-08-18T09:20:14.140Z,70.00
2022-08-18T09:22:45.548Z,68.80
2022-08-18T09:25:05.182Z,69.00
2022-08-18T09:27:26.238Z,69.90
2022-08-18T09:29:56.223Z,69.80
2022-08-18T09:32:57.261Z,70.30
2022-08-18T09:35:26.915Z,70.90
2022-08-18T09:38:09.453Z,71.20
2022-08-18T09:40:59.370Z,71.30
2022-08-18T09:43:15.453Z,71.80
2022-08-18T09:45:57.534Z,72.00
2022-08-18T09:48:25.533Z,71.90
2022-08-18T09:51:28.655Z,72.50
2022-08-18T09:54:25.621Z,71.20
2022-08-18T09:57:10.212Z,70.50
2022-08-18T09:59:35.444Z,69.50
2022-08-18T10:01:52.577Z,68.40
2022-08-18T10:04:52.493Z,68.10
2022-08-18T10:10:59.759Z,68.00
2022-08-18T10:13:43.886Z,67.40
2022-08-18T10:16:10.497Z,68.40
2022-08-18T10:18:58.107Z,68.30
2022-08-18T10:21:23.119Z,68.70
2022-08-18T10:24:34.897Z,69.70
2022-08-18T10:27:17.674Z,70.00
2022-08-18T10:29:47.756Z,70.80
2022-08-18T10:32:26.653Z,71.10
2022-08-18T10:34:52.498Z,71.80
2022-08-18T10:37:17.038Z,72.20
2022-08-18T10:39:41.170Z,72.80
2022-08-18T10:42:03.396Z,72.80
2022-08-18T10:44:27.640Z,72.10
2022-08-18T10:46:39.625Z,71.50
2022-08-18T10:49:07.130Z,71.90
2022-08-18T10:51:24.301Z,72.30
2022-08-18T10:53:46.593Z,72.00
2022-08-18T10:55:58.999Z,71.80
2022-08-18T10:58:51.746Z,71.70
2022-08-18T11:01:12.836Z,71.30
2022-08-18T11:03:55.729Z,70.20
2022-08-18T11:06:06.956Z,74.30
2022-08-18T11:08:22.293Z,76.20
2022-08-18T11:10:57.263Z,74.30
2022-08-18T11:13:21.800Z,75.00
2022-08-18T11:15:38.565Z,75.40
2022-08-18T11:17:54.340Z,75.10
2022-08-18T11:20:00.947Z,74.30
2022-08-18T11:22:06.215Z,72.90
2022-08-18T11:24:18.377Z,71.80
2022-08-18T11:26:24.060Z,74.80
2022-08-18T11:28:32.544Z,75.60
2022-08-18T11:30:42.120Z,76.40
2022-08-18T11:32:57.748Z,76.80
2022-08-18T11:35:06.286Z,75.70
2022-08-18T11:37:24.283Z,75.10
2022-08-18T11:39:38.132Z,75.10
2022-08-18T11:41:52.443Z,74.50
2022-08-18T11:44:12.112Z,74.10
2022-08-18T11:46:59.486Z,72.90
2022-08-18T11:49:26.271Z,72.50
2022-08-18T11:51:54.284Z,73.20
2022-08-18T11:54:01.981Z,72.70
2022-08-18T11:56:15.610Z,72.10
2022-08-18T11:58:44.792Z,72.00
2022-08-18T12:01:02.876Z,72.20
2022-08-18T12:03:38.638Z,71.80
2022-08-18T12:05:54.023Z,73.50
2022-08-18T12:08:01.670Z,74.30
2022-08-18T12:10:26.260Z,75.00
2022-08-18T12:12:45.832Z,75.10
2022-08-18T12:15:10.468Z,75.70
2022-08-18T12:17:25.279Z,76.30
2022-08-18T12:19:34.821Z,76.70
2022-08-18T12:21:50.576Z,76.60
2022-08-18T12:23:59.852Z,76.30
2022-08-18T12:26:05.104Z,76.30
2022-08-18T12:28:41.453Z,76.10
2022-08-18T12:30:57.664Z,76.40
2022-08-18T12:33:10.242Z,75.60
2022-08-18T12:35:22.569Z,75.90
2022-08-18T12:37:59.062Z,76.20
2022-08-18T12:40:23.612Z,76.00
2022-08-18T12:42:35.806Z,77.20
2022-08-18T12:44:56.628Z,76.50
2022-08-18T12:47:20.465Z,76.20
2022-08-18T12:50:07.435Z,76.40
2022-08-18T12:52:47.929Z,77.30
2022-08-18T12:55:08.501Z,76.80
2022-08-18T12:58:16.482Z,76.80
2022-08-18T13:00:36.527Z,77.40
2022-08-18T13:02:52.965Z,76.50
2022-08-18T13:05:00.350Z,75.90
2022-08-18T13:07:41.096Z,75.60
2022-08-18T13:10:51.378Z,74.90
2022-08-18T13:13:35.368Z,74.20
2022-08-18T13:16:07.488Z,73.30
2022-08-18T13:18:46.783Z,72.70
2022-08-18T13:21:19.431Z,72.60
2022-08-18T13:27:13.701Z,72.90
2022-08-18T13:29:46.929Z,72.60
2022-08-18T13:32:11.362Z,72.40
2022-08-18T13:37:45.947Z,71.90
2022-08-18T13:40:14.680Z,71.60
2022-08-18T13:42:53.876Z,71.90
2022-08-18T13:46:30.944Z,71.20
2022-08-18T13:49:03.707Z,70.60
2022-08-18T13:51:45.562Z,70.10
2022-08-18T13:54:31.359Z,70.50
2022-08-18T13:56:51.866Z,71.30
2022-08-18T13:59:39.093Z,70.60
2022-08-18T14:02:11.799Z,71.80
2022-08-18T14:04:44.936Z,71.30
2022-08-18T14:07:27.636Z,70.20
2022-08-18T14:09:49.813Z,70.20
2022-08-18T14:12:22.919Z,70.30
2022-08-18T14:14:29.130Z,70.00
2022-08-18T14:16:37.084Z,69.70
2022-08-18T14:19:09.698Z,69.20
2022-08-18T14:21:33.364Z,68.90
2022-08-18T14:24:00.514Z,69.00
2022-08-18T14:26:24.864Z,68.70
2022-08-18T14:28:42.815Z,68.90
2022-08-18T14:34:09.502Z,68.80
2022-08-18T14:37:28.581Z,68.30
2022-08-18T14:39:55.745Z,68.40
2022-08-18T14:42:09.451Z,69.70
2022-08-18T14:44:31.834Z,68.70
2022-08-18T14:50:25.633Z,68.90
2022-08-18T14:53:41.834Z,69.50
2022-08-18T14:56:02.560Z,69.20
2022-08-18T14:58:10.018Z,69.10
2022-08-18T15:00:23.026Z,69.80
2022-08-18T15:02:29.264Z,69.30
2022-08-18T15:07:56.227Z,68.50
2022-08-18T15:10:42.081Z,68.50
2022-08-18T15:12:58.334Z,68.70
2022-08-18T15:15:03.633Z,68.10
2022-08-18T15:17:18.909Z,67.80
2022-08-18T15:19:58.894Z,67.70
2022-08-18T15:22:31.284Z,67.80
2022-08-18T15:25:10.831Z,67.90
2022-08-18T15:27:47.941Z,67.90
2022-08-18T15:32:49.852Z,68.20
2022-08-18T15:35:16.881Z,69.40
2022-08-18T15:37:24.475Z,70.90
2022-08-18T15:39:29.497Z,71.70
2022-08-18T15:41:48.931Z,71.90
2022-08-18T15:43:59.428Z,72.60
2022-08-18T15:46:16.852Z,72.90
2022-08-18T15:48:33.024Z,72.90
2022-08-18T15:53:44.782Z,73.20
2022-08-18T15:55:50.998Z,73.40
2022-08-18T15:57:58.277Z,73.80
2022-08-18T16:00:03.400Z,72.90
2022-08-18T16:02:19.208Z,72.80
2022-08-18T16:04:24.146Z,72.40
2022-08-18T16:06:32.188Z,72.60
2022-08-18T16:08:37.578Z,72.60
2022-08-18T16:10:43.385Z,72.90
2022-08-18T16:12:48.401Z,73.00
2022-08-18T16:14:53.377Z,73.30
2022-08-18T16:16:58.425Z,73.30
2022-08-18T16:19:07.594Z,73.20
2022-08-18T16:21:13.757Z,73.50
2022-08-18T16:23:18.788Z,73.90
2022-08-18T16:25:23.556Z,74.10
2022-08-18T16:27:31.722Z,74.30
2022-08-18T16:29:36.593Z,74.30
2022-08-18T16:31:41.642Z,74.40
2022-08-18T16:33:46.314Z,74.60
2022-08-18T16:35:53.444Z,74.90
2022-08-18T16:37:58.379Z,75.10
2022-08-18T16:40:03.275Z,75.20
2022-08-18T16:42:08.429Z,75.00
2022-08-18T16:44:15.502Z,75.00
2022-08-18T16:46:23.601Z,75.10
2022-08-18T16:48:28.482Z,75.30
2022-08-18T16:50:33.069Z,75.30
2022-08-18T16:52:39.400Z,75.00
2022-08-18T16:54:43.888Z,74.90
2022-08-18T16:56:48.674Z,75.00
2022-08-18T16:59:10.921Z,75.20
2022-08-18T17:01:33.825Z,74.60
2022-08-18T17:04:13.621Z,74.60
2022-08-18T17:06:28.860Z,74.60
2022-08-18T17:08:37.284Z,74.60
2022-08-18T17:10:42.140Z,74.30
2022-08-18T17:12:46.529Z,74.70
2022-08-18T17:14:52.177Z,74.80
2022-08-18T17:16:58.743Z,76.20
2022-08-18T17:19:03.787Z,76.60
2022-08-18T17:21:11.122Z,75.80
2022-08-18T17:23:16.402Z,77.20
2022-08-18T17:25:25.864Z,77.90
2022-08-18T17:27:37.724Z,76.90
2022-08-18T17:29:48.562Z,77.30
2022-08-18T17:31:57.789Z,79.30
2022-08-18T17:34:07.945Z,79.10
2022-08-18T17:36:20.666Z,77.80
2022-08-18T17:38:29.957Z,77.80
2022-08-18T17:40:41.608Z,77.90
2022-08-18T17:42:51.696Z,78.50
2022-08-18T17:45:00.564Z,78.90
2022-08-18T17:47:06.549Z,78.60
2022-08-18T17:49:15.739Z,78.60
2022-08-18T17:51:34.890Z,79.50
2022-08-18T17:53:39.438Z,80.10
2022-08-18T17:55:49.351Z,80.10
2022-08-18T17:58:01.840Z,80.10
2022-08-18T18:00:11.786Z,80.50
2022-08-18T18:02:29.220Z,80.40
2022-08-18T18:04:35.370Z,80.60
2022-08-18T18:06:42.383Z,80.90
2022-08-18T18:08:50.756Z,81.20
2022-08-18T18:11:11.974Z,81.20
2022-08-18T18:13:27.481Z,81.50
2022-08-18T18:15:34.340Z,81.70
2022-08-18T18:17:40.962Z,81.50
2022-08-18T18:19:47.915Z,81.90
2022-08-18T18:22:06.921Z,82.50
2022-08-18T18:24:16.238Z,83.00
2022-08-18T18:26:28.908Z,83.30
2022-08-18T18:28:36.005Z,83.80
2022-08-18T18:30:41.001Z,83.70
2022-08-18T18:32:59.195Z,84.00
2022-08-18T18:35:15.307Z,83.80
2022-08-18T18:37:26.895Z,84.30
2022-08-18T18:39:36.576Z,84.70
2022-08-18T18:41:43.723Z,84.70
2022-08-18T18:43:51.391Z,84.70
2022-08-18T18:46:30.179Z,84.50
2022-08-18T18:48:52.208Z,84.40
2022-08-18T18:51:10.964Z,84.60
2022-08-18T18:53:26.395Z,85.10
2022-08-18T18:55:35.973Z,85.00
2022-08-18T18:57:46.400Z,85.20
2022-08-18T18:59:59.248Z,85.10
2022-08-18T19:02:33.897Z,85.30
2022-08-18T19:04:41.425Z,85.80
2022-08-18T19:06:52.035Z,86.10
2022-08-18T19:09:08.710Z,86.40
2022-08-18T19:11:22.672Z,86.50
2022-08-18T19:13:34.849Z,86.80
2022-08-18T19:15:41.467Z,86.90
2022-08-18T19:17:51.268Z,87.20
2022-08-18T19:20:00.669Z,87.20
2022-08-18T19:22:11.201Z,86.90
2022-08-18T19:24:20.626Z,87.00
2022-08-18T19:26:34.770Z,87.10
2022-08-18T19:29:12.755Z,87.00
2022-08-18T19:31:17.793Z,86.50
2022-08-18T19:33:32.502Z,86.40
2022-08-18T19:35:43.231Z,86.30
2022-08-18T19:38:04.326Z,86.70
2022-08-18T19:40:18.202Z,87.20
2022-08-18T19:42:28.058Z,87.70
2022-08-18T19:45:00.252Z,87.70
2022-08-18T19:47:17.914Z,87.80
2022-08-18T19:49:42.895Z,87.50
2022-08-18T19:51:51.741Z,87.30
2022-08-18T19:54:39.981Z,87.10
2022-08-18T19:56:56.702Z,86.80
2022-08-18T19:59:19.398Z,86.40
2022-08-18T20:01:39.420Z,86.20
2022-08-18T20:04:02.971Z,86.20
2022-08-18T20:06:38.336Z,85.80
2022-08-18T20:09:14.686Z,85.90
2022-08-18T20:11:54.441Z,86.80
2022-08-18T20:14:02.649Z,87.00
2022-08-18T20:16:43.448Z,87.40
2022-08-18T20:18:54.634Z,86.10
2022-08-18T20:21:36.801Z,86.00
2022-08-18T20:24:02.476Z,86.00
2022-08-18T20:26:27.613Z,86.20
2022-08-18T20:28:41.860Z,86.00
2022-08-18T20:31:02.736Z,86.30
2022-08-18T20:33:18.041Z,86.80
2022-08-18T20:35:27.679Z,86.70
2022-08-18T20:37:32.506Z,86.40
2022-08-18T20:39:48.343Z,86.20
2022-08-18T20:41:53.012Z,85.60
2022-08-18T20:44:03.057Z,85.60
2022-08-18T20:46:24.358Z,85.50
2022-08-18T20:48:37.533Z,85.60
2022-08-18T20:51:10.362Z,85.30
2022-08-18T20:53:26.853Z,84.90
2022-08-18T20:55:42.224Z,84.80
2022-08-18T20:57:47.394Z,85.00
2022-08-18T21:00:02.251Z,85.00
2022-08-18T21:02:28.470Z,85.50
2022-08-18T21:04:48.819Z,87.00
2022-08-18T21:06:55.331Z,87.00
2022-08-18T21:09:19.167Z,88.60
2022-08-18T21:12:03.579Z,89.00
2022-08-18T21:14:31.883Z,89.70
2022-08-18T21:16:59.723Z,90.10
2022-08-18T21:19:42.373Z,90.20
2022-08-18T21:23:11.266Z,90.40
2022-08-18T21:26:07.557Z,90.50
2022-08-18T21:29:55.220Z,90.40
2022-08-18T21:32:14.012Z,90.60
2022-08-18T21:34:35.093Z,90.30
2022-08-18T21:36:52.163Z,89.40
2022-08-18T21:39:06.275Z,89.30
2022-08-18T21:41:15.076Z,90.10
2022-08-18T21:43:36.801Z,90.50
2022-08-18T21:45:47.631Z,90.50
2022-08-18T21:47:54.731Z,90.70
2022-08-18T21:50:10.045Z,90.70
2022-08-18T21:52:25.594Z,90.80
2022-08-18T21:54:34.770Z,90.60
2022-08-18T21:56:39.402Z,90.80
2022-08-18T21:58:45.840Z,90.70
2022-08-18T22:01:11.818Z,90.80
2022-08-18T22:03:22.312Z,90.60
2022-08-18T22:05:58.683Z,91.50
2022-08-18T22:07:57.477Z,91.50
2022-08-18T22:10:23.615Z,91.20
2022-08-18T22:12:48.744Z,91.20
2022-08-18T22:14:54.789Z,91.30
2022-08-18T22:17:26.214Z,91.20
2022-08-18T22:19:30.823Z,91.30
2022-08-18T22:21:40.745Z,91.70
2022-08-18T22:24:06.378Z,91.50
2022-08-18T22:26:14.810Z,91.50
2022-08-18T22:28:23.456Z,91.50
2022-08-18T22:30:30.898Z,91.80
2022-08-18T22:32:37.729Z,91.50
2022-08-18T22:34:43.264Z,91.40
2022-08-18T22:36:52.703Z,91.50
2022-08-18T22:38:57.718Z,91.60
2022-08-18T22:41:02.846Z,91.70
2022-08-18T22:43:09.092Z,91.80
2022-08-18T22:45:15.817Z,92.00
2022-08-18T22:47:21.541Z,92.00
2022-08-18T22:49:26.385Z,92.00
2022-08-18T22:51:33.516Z,91.90
2022-08-18T22:53:38.257Z,92.10
2022-08-18T22:55:43.030Z,92.20
2022-08-18T22:57:47.609Z,92.10
2022-08-18T22:59:54.636Z,92.40
2022-08-18T23:02:02.179Z,92.50
2022-08-18T23:04:07.184Z,92.60
2022-08-18T23:06:11.975Z,92.80
2022-08-18T23:08:16.374Z,93.60
2022-08-18T23:10:21.381Z,93.50
2022-08-18T23:12:27.382Z,93.50
2022-08-18T23:14:33.184Z,93.40
2022-08-18T23:16:40.086Z,93.30
2022-08-18T23:18:44.852Z,93.40
2022-08-18T23:20:50.869Z,93.30
2022-08-18T23:22:55.228Z,93.20
2022-08-18T23:25:00.221Z,93.20
2022-08-18T23:27:16.053Z,93.50
2022-08-18T23:29:21.643Z,93.70
2022-08-18T23:31:26.241Z,93.80
2022-08-18T23:33:33.314Z,94.00
2022-08-18T23:35:38.200Z,94.10
2022-08-18T23:37:43.465Z,94.20
2022-08-18T23:39:48.564Z,94.50
2022-08-18T23:41:53.492Z,94.60
2022-08-18T23:43:59.253Z,94.80
2022-08-18T23:46:04.086Z,94.90
2022-08-18T23:48:10.123Z,95.30
2022-08-18T23:50:16.038Z,95.00
2022-08-18T23:52:20.420Z,95.60
2022-08-18T23:54:33.562Z,95.70
2022-08-18T23:56:38.871Z,95.80
2022-08-18T23:58:43.350Z,95.40
